createdAt,value
2018-09-22T00:00:52.934Z,0.00
2018-09-22T00:01:52.967Z,0.00
2018-09-22T00:02:52.997Z,0.00
2018-09-22T00:03:53.028Z,0.00
2018-09-22T00:04:53.059Z,0.00
2018-09-22T00:05:53.091Z,0.00
2018-09-22T00:06:53.122Z,0.00
2018-09-22T00:07:53.155Z,0.00
2018-09-22T00:08:53.184Z,0.00
2018-09-22T00:09:53.216Z,0.00
2018-09-22T00:10:53.249Z,0.00
2018-09-22T00:11:53.280Z,0.00
2018-09-22T00:12:53.311Z,0.00
2018-09-22T00:13:53.341Z,0.00
2018-09-22T00:14:53.373Z,0.00
2018-09-22T00:15:53.406Z,0.00
2018-09-22T00:16:53.435Z,0.00
2018-09-22T00:17:53.466Z,0.00
2018-09-22T00:18:53.498Z,0.00
2018-09-22T00:19:53.530Z,0.00
2018-09-22T00:20:53.561Z,0.00
2018-09-22T00:21:53.696Z,0.00
2018-09-22T00:22:53.624Z,0.00
2018-09-22T00:23:53.656Z,0.00
2018-09-22T00:24:53.686Z,0.00
2018-09-22T00:25:53.718Z,0.00
2018-09-22T00:26:53.748Z,0.00
2018-09-22T00:27:53.781Z,0.00
2018-09-22T00:28:53.811Z,0.00
2018-09-22T00:29:53.843Z,0.00
2018-09-22T00:30:53.873Z,0.00
2018-09-22T00:31:53.908Z,0.00
2018-09-22T00:32:53.937Z,0.00
2018-09-22T00:33:53.968Z,0.00
2018-09-22T00:34:53.999Z,0.00
2018-09-22T00:35:54.036Z,0.00
2018-09-22T00:36:54.062Z,0.00
2018-09-22T00:37:54.094Z,0.00
2018-09-22T00:38:54.124Z,0.00
2018-09-22T00:39:54.158Z,0.00
2018-09-22T00:40:54.188Z,0.00
2018-09-22T00:41:54.219Z,0.00
2018-09-22T00:42:54.251Z,0.00
2018-09-22T00:43:54.283Z,0.00
2018-09-22T00:44:54.317Z,0.00
2018-09-22T00:45:54.344Z,0.00
2018-09-22T00:46:54.376Z,0.00
2018-09-22T00:47:54.408Z,0.00
2018-09-22T00:48:54.438Z,0.00
2018-09-22T00:49:54.469Z,0.00
2018-09-22T00:50:54.505Z,0.00
2018-09-22T00:51:54.534Z,0.00
2018-09-22T00:52:54.563Z,0.00
2018-09-22T00:53:54.595Z,0.00
2018-09-22T00:54:54.625Z,0.00
2018-09-22T00:55:54.660Z,0.00
2018-09-22T00:56:54.689Z,0.00
2018-09-22T00:57:54.720Z,0.00
2018-09-22T00:58:54.753Z,0.00
2018-09-22T00:59:54.791Z,0.00
2018-09-22T01:00:54.816Z,0.00
2018-09-22T01:01:54.844Z,0.00
2018-09-22T01:02:54.876Z,0.00
2018-09-22T01:03:54.908Z,0.00
2018-09-22T01:04:54.939Z,0.00
2018-09-22T01:05:54.976Z,0.00
2018-09-22T01:06:55.002Z,0.00
2018-09-22T01:07:55.035Z,0.00
2018-09-22T01:08:55.064Z,0.00
2018-09-22T01:09:55.096Z,0.00
2018-09-22T01:10:55.127Z,0.00
2018-09-22T01:11:55.160Z,0.00
2018-09-22T01:12:55.191Z,0.00
2018-09-22T01:13:55.221Z,0.00
2018-09-22T01:14:55.255Z,0.00
2018-09-22T01:15:55.389Z,0.00
2018-09-22T01:16:55.315Z,0.00
2018-09-22T01:17:55.345Z,0.00
2018-09-22T01:18:55.377Z,0.00
2018-09-22T01:19:55.411Z,0.00
2018-09-22T01:20:55.440Z,0.00
2018-09-22T01:21:55.471Z,0.00
2018-09-22T01:22:55.502Z,0.00
2018-09-22T01:23:55.536Z,0.00
2018-09-22T01:24:55.565Z,0.00
2018-09-22T01:25:55.596Z,0.00
2018-09-22T01:26:55.628Z,0.00
2018-09-22T01:27:55.660Z,0.00
2018-09-22T01:28:55.692Z,0.00
2018-09-22T01:29:55.723Z,0.00
2018-09-22T01:30:55.753Z,0.00
2018-09-22T01:31:55.787Z,0.00
2018-09-22T01:32:55.814Z,0.00
2018-09-22T01:33:55.845Z,0.00
2018-09-22T01:34:55.877Z,0.00
2018-09-22T01:35:55.908Z,0.00
2018-09-22T01:36:55.939Z,0.00
2018-09-22T01:37:55.970Z,0.00
2018-09-22T01:38:56.000Z,0.00
2018-09-22T01:39:56.033Z,0.00
2018-09-22T01:40:56.063Z,0.00
2018-09-22T01:41:56.094Z,0.00
2018-09-22T01:42:56.128Z,0.00
2018-09-22T01:43:56.158Z,0.00
2018-09-22T01:44:56.187Z,0.00
2018-09-22T01:45:56.220Z,0.00
2018-09-22T01:46:56.249Z,0.00
2018-09-22T01:47:56.281Z,0.00
2018-09-22T01:48:56.312Z,0.00
2018-09-22T01:49:56.344Z,0.00
2018-09-22T01:50:56.375Z,0.00
2018-09-22T01:51:56.405Z,0.00
2018-09-22T01:52:56.437Z,0.00
2018-09-22T01:53:56.467Z,0.00
2018-09-22T01:54:56.499Z,0.00
2018-09-22T01:55:56.530Z,0.00
2018-09-22T01:56:56.560Z,0.00
2018-09-22T01:57:56.592Z,0.00
2018-09-22T01:58:56.623Z,0.00
2018-09-22T01:59:58.108Z,0.00
2018-09-22T02:00:56.684Z,0.00
2018-09-22T02:01:56.717Z,0.00
2018-09-22T02:02:56.747Z,0.00
2018-09-22T02:03:56.778Z,0.00
2018-09-22T02:04:56.810Z,0.00
2018-09-22T02:05:56.840Z,0.00
2018-09-22T02:06:56.871Z,0.00
2018-09-22T02:07:56.902Z,0.00
2018-09-22T02:08:56.934Z,0.00
2018-09-22T02:09:56.965Z,0.00
2018-09-22T02:10:56.995Z,0.00
2018-09-22T02:11:57.027Z,0.00
2018-09-22T02:12:57.057Z,0.00
2018-09-22T02:13:57.092Z,0.00
2018-09-22T02:14:57.127Z,0.00
2018-09-22T02:15:57.153Z,0.00
2018-09-22T02:16:57.182Z,0.00
2018-09-22T02:17:57.213Z,0.00
2018-09-22T02:18:57.245Z,0.00
2018-09-22T02:19:57.277Z,0.00
2018-09-22T02:20:57.306Z,0.00
2018-09-22T02:21:57.340Z,0.00
2018-09-22T02:22:57.368Z,0.00
2018-09-22T02:23:57.399Z,0.00
2018-09-22T02:24:57.430Z,0.00
2018-09-22T02:25:57.462Z,0.00
2018-09-22T02:26:57.493Z,0.00
2018-09-22T02:27:57.524Z,0.00
2018-09-22T02:28:57.554Z,0.00
2018-09-22T02:29:57.585Z,0.00
2018-09-22T02:30:57.618Z,0.00
2018-09-22T02:31:57.649Z,0.00
2018-09-22T02:32:57.679Z,0.00
2018-09-22T02:33:57.714Z,0.00
2018-09-22T02:34:57.742Z,0.00
2018-09-22T02:35:57.773Z,0.00
2018-09-22T02:36:57.804Z,0.00
2018-09-22T02:37:57.836Z,0.00
2018-09-22T02:38:57.867Z,0.00
2018-09-22T02:39:57.898Z,0.00
2018-09-22T02:40:57.929Z,0.00
2018-09-22T02:41:57.959Z,0.00
2018-09-22T02:42:57.991Z,0.00
2018-09-22T02:43:58.026Z,0.00
2018-09-22T02:44:58.054Z,0.00
2018-09-22T02:45:58.087Z,0.00
2018-09-22T02:46:58.115Z,0.00
2018-09-22T02:47:58.147Z,0.00
2018-09-22T02:48:58.177Z,0.00
2018-09-22T02:49:58.209Z,0.00
2018-09-22T02:50:58.242Z,0.00
2018-09-22T02:51:58.273Z,0.00
2018-09-22T02:52:58.301Z,0.00
2018-09-22T02:53:58.333Z,0.00
2018-09-22T02:54:58.365Z,0.00
2018-09-22T02:55:58.396Z,0.00
2018-09-22T02:56:58.428Z,0.00
2018-09-22T02:57:58.459Z,0.00
2018-09-22T02:58:58.488Z,0.00
2018-09-22T02:59:58.520Z,0.00
2018-09-22T03:00:58.551Z,0.00
2018-09-22T03:01:58.584Z,0.00
2018-09-22T03:02:58.614Z,0.00
2018-09-22T03:03:58.655Z,0.00
2018-09-22T03:04:58.675Z,0.00
2018-09-22T03:05:58.707Z,0.00
2018-09-22T03:06:58.738Z,0.00
2018-09-22T03:07:58.771Z,0.00
2018-09-22T03:08:58.802Z,0.00
2018-09-22T03:09:58.849Z,0.00
2018-09-22T03:10:58.862Z,0.00
2018-09-22T03:11:58.893Z,0.00
2018-09-22T03:12:58.924Z,0.00
2018-09-22T03:13:58.956Z,0.00
2018-09-22T03:14:58.986Z,0.00
2018-09-22T03:15:59.017Z,0.00
2018-09-22T03:16:59.048Z,0.00
2018-09-22T03:17:59.080Z,0.00
2018-09-22T03:18:59.111Z,0.00
2018-09-22T03:19:59.141Z,0.00
2018-09-22T03:20:59.173Z,0.00
2018-09-22T03:21:59.215Z,0.00
2018-09-22T03:22:59.234Z,0.00
2018-09-22T03:23:59.265Z,0.00
2018-09-22T03:24:59.296Z,0.00
2018-09-22T03:25:59.327Z,0.00
2018-09-22T03:26:59.359Z,0.00
2018-09-22T03:27:59.390Z,0.00
2018-09-22T03:28:59.420Z,0.00
2018-09-22T03:29:59.451Z,0.00
2018-09-22T03:30:59.487Z,0.00
2018-09-22T03:31:59.513Z,0.00
2018-09-22T03:32:59.543Z,0.00
2018-09-22T03:33:59.574Z,0.00
2018-09-22T03:34:59.611Z,0.00
2018-09-22T03:35:59.637Z,0.00
2018-09-22T03:36:59.668Z,0.00
2018-09-22T03:37:59.701Z,0.00
2018-09-22T03:38:59.729Z,0.00
2018-09-22T03:39:59.765Z,0.00
2018-09-22T03:40:59.791Z,0.00
2018-09-22T03:41:59.822Z,0.00
2018-09-22T03:42:59.853Z,0.00
2018-09-22T03:43:59.890Z,0.00
2018-09-22T03:44:59.914Z,0.00
2018-09-22T03:45:59.945Z,0.00
2018-09-22T03:46:59.976Z,0.00
2018-09-22T03:48:00.008Z,0.00
2018-09-22T03:49:00.040Z,0.00
2018-09-22T03:50:00.069Z,0.00
2018-09-22T03:51:00.100Z,0.00
2018-09-22T03:52:00.131Z,0.00
2018-09-22T03:53:00.162Z,0.00
2018-09-22T03:54:00.193Z,0.00
2018-09-22T03:55:00.225Z,0.00
2018-09-22T03:56:00.255Z,0.00
2018-09-22T03:57:00.285Z,0.00
2018-09-22T03:58:00.318Z,0.00
2018-09-22T03:59:00.346Z,0.00
2018-09-22T04:00:00.377Z,0.00
2018-09-22T04:01:00.407Z,0.00
2018-09-22T04:02:00.439Z,0.00
2018-09-22T04:03:00.469Z,0.00
2018-09-22T04:04:00.500Z,0.00
2018-09-22T04:05:00.532Z,0.00
2018-09-22T04:06:00.562Z,0.00
2018-09-22T04:07:00.596Z,0.00
2018-09-22T04:08:00.623Z,0.00
2018-09-22T04:09:00.654Z,0.00
2018-09-22T04:10:00.684Z,0.00
2018-09-22T04:11:00.716Z,0.00
2018-09-22T04:12:00.746Z,0.00
2018-09-22T04:13:00.776Z,0.00
2018-09-22T04:14:00.807Z,0.00
2018-09-22T04:15:00.837Z,0.00
2018-09-22T04:16:00.870Z,0.00
2018-09-22T04:17:00.899Z,0.00
2018-09-22T04:18:00.931Z,0.00
2018-09-22T04:19:00.960Z,0.00
2018-09-22T04:20:00.991Z,0.00
2018-09-22T04:21:01.021Z,0.00
2018-09-22T04:22:01.052Z,0.00
2018-09-22T04:23:01.089Z,0.00
2018-09-22T04:24:01.114Z,0.00
2018-09-22T04:25:01.144Z,0.00
2018-09-22T04:26:01.175Z,0.00
2018-09-22T04:27:01.206Z,0.00
2018-09-22T04:28:01.236Z,0.00
2018-09-22T04:29:01.267Z,0.00
2018-09-22T04:30:01.300Z,0.00
2018-09-22T04:31:01.328Z,0.00
2018-09-22T04:32:01.361Z,0.00
2018-09-22T04:33:01.389Z,0.00
2018-09-22T04:34:01.420Z,0.00
2018-09-22T04:35:01.452Z,0.00
2018-09-22T04:36:01.483Z,0.00
2018-09-22T04:37:01.514Z,0.00
2018-09-22T04:38:01.543Z,0.00
2018-09-22T04:39:01.574Z,0.00
2018-09-22T04:40:01.609Z,0.00
2018-09-22T04:41:01.635Z,0.00
2018-09-22T04:42:01.667Z,0.00
2018-09-22T04:43:01.698Z,0.00
2018-09-22T04:44:01.730Z,0.00
2018-09-22T04:45:01.760Z,0.00
2018-09-22T04:46:01.790Z,0.00
2018-09-22T04:47:01.821Z,0.00
2018-09-22T04:48:01.853Z,0.00
2018-09-22T04:49:01.884Z,4.00
2018-09-22T04:50:01.913Z,4.00
2018-09-22T04:51:01.944Z,4.00
2018-09-22T04:52:01.976Z,4.00
2018-09-22T04:53:02.016Z,4.00
2018-09-22T04:54:02.036Z,8.00
2018-09-22T04:55:02.068Z,8.00
2018-09-22T04:56:02.098Z,12.00
2018-09-22T04:57:02.129Z,16.00
2018-09-22T04:58:02.160Z,20.00
2018-09-22T04:59:02.192Z,20.00
2018-09-22T05:00:02.223Z,24.00
2018-09-22T05:01:02.255Z,28.00
2018-09-22T05:02:02.284Z,36.00
2018-09-22T05:03:02.313Z,44.00
2018-09-22T05:04:02.345Z,48.00
2018-09-22T05:05:02.381Z,56.00
2018-09-22T05:06:02.406Z,68.00
2018-09-22T05:07:02.438Z,76.00
2018-09-22T05:08:02.467Z,88.00
2018-09-22T05:09:02.498Z,104.00
2018-09-22T05:10:02.529Z,116.00
2018-09-22T05:11:02.560Z,132.00
2018-09-22T05:12:02.596Z,148.00
2018-09-22T05:13:02.620Z,160.00
2018-09-22T05:14:02.651Z,176.00
2018-09-22T05:15:02.681Z,192.00
2018-09-22T05:16:02.714Z,208.00
2018-09-22T05:17:02.864Z,228.00
2018-09-22T05:18:02.775Z,256.00
2018-09-22T05:19:02.804Z,284.00
2018-09-22T05:20:02.836Z,320.00
2018-09-22T05:21:02.867Z,360.00
2018-09-22T05:22:02.896Z,400.00
2018-09-22T05:23:02.928Z,440.00
2018-09-22T05:24:02.960Z,472.00
2018-09-22T05:25:02.988Z,512.00
2018-09-22T05:26:03.019Z,556.00
2018-09-22T05:27:03.051Z,600.00
2018-09-22T05:28:03.085Z,656.00
2018-09-22T05:29:03.110Z,720.00
2018-09-22T05:30:03.141Z,780.00
2018-09-22T05:31:03.172Z,844.00
2018-09-22T05:32:03.202Z,912.00
2018-09-22T05:33:03.233Z,976.00
2018-09-22T05:34:03.312Z,1048.00
2018-09-22T05:35:03.296Z,1116.00
2018-09-22T05:36:03.325Z,1176.00
2018-09-22T05:37:03.354Z,1232.00
2018-09-22T05:38:03.385Z,1288.00
2018-09-22T05:39:03.416Z,1348.00
2018-09-22T05:40:03.447Z,1408.00
2018-09-22T05:41:03.481Z,1476.00
2018-09-22T05:42:03.507Z,1532.00
2018-09-22T05:43:03.536Z,1568.00
2018-09-22T05:44:03.575Z,1600.00
2018-09-22T05:45:03.599Z,1632.00
2018-09-22T05:46:03.629Z,1668.00
2018-09-22T05:47:03.665Z,1700.00
2018-09-22T05:48:03.695Z,1724.00
2018-09-22T05:49:03.720Z,1780.00
2018-09-22T05:50:03.751Z,1860.00
2018-09-22T05:51:03.786Z,1956.00
2018-09-22T05:52:03.813Z,2048.00
2018-09-22T05:53:03.843Z,2136.00
2018-09-22T05:54:03.874Z,2216.00
2018-09-22T05:55:03.904Z,2272.00
2018-09-22T05:56:03.935Z,2320.00
2018-09-22T05:57:03.965Z,2404.00
2018-09-22T05:58:04.051Z,2480.00
2018-09-22T05:59:04.027Z,2556.00
2018-09-22T06:00:04.059Z,2664.00
2018-09-22T06:01:04.094Z,2784.00
2018-09-22T06:02:04.118Z,2916.00
2018-09-22T06:03:04.149Z,3068.00
2018-09-22T06:04:04.296Z,3116.00
2018-09-22T06:05:04.211Z,3056.00
2018-09-22T06:06:04.242Z,3024.00
2018-09-22T06:07:04.271Z,3000.00
2018-09-22T06:08:04.303Z,2984.00
2018-09-22T06:09:04.333Z,2972.00
2018-09-22T06:10:04.364Z,3016.00
2018-09-22T06:11:04.395Z,3048.00
2018-09-22T06:12:04.428Z,3072.00
2018-09-22T06:13:04.455Z,3100.00
2018-09-22T06:14:04.488Z,3076.00
2018-09-22T06:15:04.517Z,3060.00
2018-09-22T06:16:04.548Z,3048.00
2018-09-22T06:17:04.578Z,3060.00
2018-09-22T06:18:04.609Z,3084.00
2018-09-22T06:19:04.642Z,3160.00
2018-09-22T06:20:04.673Z,3324.00
2018-09-22T06:21:04.701Z,3520.00
2018-09-22T06:22:04.733Z,3700.00
2018-09-22T06:23:04.785Z,3924.00
2018-09-22T06:24:04.796Z,4108.00
2018-09-22T06:25:04.825Z,4320.00
2018-09-22T06:26:04.856Z,4460.00
2018-09-22T06:27:04.892Z,4624.00
2018-09-22T06:28:04.918Z,4884.00
2018-09-22T06:29:04.954Z,5160.00
2018-09-22T06:30:04.980Z,5340.00
2018-09-22T06:31:05.011Z,5472.00
2018-09-22T06:32:05.045Z,5544.00
2018-09-22T06:33:05.074Z,5676.00
2018-09-22T06:34:05.151Z,5724.00
2018-09-22T06:35:05.138Z,5692.00
2018-09-22T06:36:05.168Z,5652.00
2018-09-22T06:37:05.197Z,5716.00
2018-09-22T06:38:05.230Z,5856.00
2018-09-22T06:39:05.261Z,5932.00
2018-09-22T06:40:05.293Z,5988.00
2018-09-22T06:41:05.323Z,6024.00
2018-09-22T06:42:05.355Z,6024.00
2018-09-22T06:43:05.386Z,6044.00
2018-09-22T06:44:05.418Z,5976.00
2018-09-22T06:45:05.449Z,5880.00
2018-09-22T06:46:05.542Z,5784.00
2018-09-22T06:47:05.514Z,5716.00
2018-09-22T06:48:05.550Z,5644.00
2018-09-22T06:49:05.575Z,5572.00
2018-09-22T06:50:05.606Z,5632.00
2018-09-22T06:51:05.641Z,5736.00
2018-09-22T06:52:05.672Z,5916.00
2018-09-22T06:53:05.701Z,6156.00
2018-09-22T06:54:05.734Z,6392.00
2018-09-22T06:55:05.767Z,6596.00
2018-09-22T06:56:05.797Z,6752.00
2018-09-22T06:57:05.829Z,6856.00
2018-09-22T06:58:05.861Z,6924.00
2018-09-22T06:59:05.895Z,6964.00
2018-09-22T07:00:05.925Z,6960.00
2018-09-22T07:01:05.957Z,6948.00
2018-09-22T07:02:05.988Z,7004.00
2018-09-22T07:03:06.021Z,7068.00
2018-09-22T07:04:06.055Z,7192.00
2018-09-22T07:05:06.090Z,7420.00
2018-09-22T07:06:06.117Z,7696.00
2018-09-22T07:07:06.152Z,8012.00
2018-09-22T07:08:06.181Z,8344.00
2018-09-22T07:09:06.213Z,8560.00
2018-09-22T07:10:06.245Z,8632.00
2018-09-22T07:11:06.277Z,8448.00
2018-09-22T07:12:06.311Z,8256.00
2018-09-22T07:13:06.341Z,7692.00
2018-09-22T07:14:06.373Z,7360.00
2018-09-22T07:15:06.407Z,7364.00
2018-09-22T07:16:06.439Z,7292.00
2018-09-22T07:17:06.471Z,7424.00
2018-09-22T07:18:06.503Z,7508.00
2018-09-22T07:19:06.537Z,7732.00
2018-09-22T07:20:06.573Z,7928.00
2018-09-22T07:21:06.600Z,8040.00
2018-09-22T07:22:06.637Z,8068.00
2018-09-22T07:23:06.666Z,7948.00
2018-09-22T07:24:06.699Z,7872.00
2018-09-22T07:25:06.732Z,8016.00
2018-09-22T07:26:06.766Z,8388.00
2018-09-22T07:27:06.797Z,8936.00
2018-09-22T07:28:06.831Z,9308.00
2018-09-22T07:29:06.863Z,9316.00
2018-09-22T07:30:06.897Z,9404.00
2018-09-22T07:31:06.929Z,8940.00
2018-09-22T07:32:06.962Z,8960.00
2018-09-22T07:33:06.996Z,8872.00
2018-09-22T07:34:07.028Z,8812.00
2018-09-22T07:35:07.061Z,8820.00
2018-09-22T07:36:07.094Z,8392.00
2018-09-22T07:37:07.130Z,8380.00
2018-09-22T07:38:07.159Z,8484.00
2018-09-22T07:39:07.195Z,8744.00
2018-09-22T07:40:07.226Z,9040.00
2018-09-22T07:41:07.259Z,9392.00
2018-09-22T07:42:07.292Z,10480.00
2018-09-22T07:43:07.326Z,10508.00
2018-09-22T07:44:07.359Z,12828.00
2018-09-22T07:45:07.391Z,13764.00
2018-09-22T07:46:07.426Z,13612.00
2018-09-22T07:47:07.459Z,13516.00
2018-09-22T07:48:07.496Z,11688.00
2018-09-22T07:49:07.526Z,11964.00
2018-09-22T07:50:07.562Z,13108.00
2018-09-22T07:51:07.593Z,11828.00
2018-09-22T07:52:07.628Z,11736.00
2018-09-22T07:53:07.661Z,11764.00
2018-09-22T07:54:07.693Z,11800.00
2018-09-22T07:55:07.727Z,11808.00
2018-09-22T07:56:07.761Z,11764.00
2018-09-22T07:57:07.843Z,11736.00
2018-09-22T07:58:07.830Z,11908.00
2018-09-22T07:59:07.863Z,12052.00
2018-09-22T08:00:07.898Z,12392.00
2018-09-22T08:01:07.931Z,12832.00
2018-09-22T08:02:07.965Z,13288.00
2018-09-22T08:03:08.000Z,13820.00
2018-09-22T08:04:08.034Z,13624.00
2018-09-22T08:05:08.068Z,13504.00
2018-09-22T08:06:08.102Z,13580.00
2018-09-22T08:07:08.137Z,13092.00
2018-09-22T08:08:08.171Z,13416.00
2018-09-22T08:09:08.206Z,13260.00
2018-09-22T08:10:08.240Z,13860.00
2018-09-22T08:11:08.274Z,14120.00
2018-09-22T08:12:08.310Z,14728.00
2018-09-22T08:13:08.344Z,15316.00
2018-09-22T08:14:08.381Z,15536.00
2018-09-22T08:15:08.414Z,15604.00
2018-09-22T08:16:08.451Z,15460.00
2018-09-22T08:17:08.487Z,14656.00
2018-09-22T08:18:08.518Z,14376.00
2018-09-22T08:19:08.553Z,14288.00
2018-09-22T08:20:08.589Z,13772.00
2018-09-22T08:21:08.624Z,14008.00
2018-09-22T08:22:08.659Z,13872.00
2018-09-22T08:23:08.695Z,13896.00
2018-09-22T08:24:08.729Z,13952.00
2018-09-22T08:25:08.818Z,14296.00
2018-09-22T08:26:08.799Z,14248.00
2018-09-22T08:27:08.842Z,14888.00
2018-09-22T08:28:08.874Z,16220.00
2018-09-22T08:29:08.907Z,17984.00
2018-09-22T08:30:08.941Z,18752.00
2018-09-22T08:31:08.977Z,17920.00
2018-09-22T08:32:09.334Z,16992.00
2018-09-22T08:33:09.049Z,16960.00
2018-09-22T08:34:09.084Z,16800.00
2018-09-22T08:35:09.120Z,16704.00
2018-09-22T08:36:09.245Z,17152.00
2018-09-22T08:37:09.357Z,17152.00
2018-09-22T08:38:09.227Z,18144.00
2018-09-22T08:39:09.302Z,18336.00
2018-09-22T08:40:09.300Z,18336.00
2018-09-22T08:41:09.336Z,17888.00
2018-09-22T08:42:09.374Z,17920.00
2018-09-22T08:43:09.408Z,18208.00
2018-09-22T08:44:09.445Z,19168.00
2018-09-22T08:45:09.482Z,20672.00
2018-09-22T08:46:09.517Z,22144.00
2018-09-22T08:47:09.554Z,23872.00
2018-09-22T08:48:09.592Z,23008.00
2018-09-22T08:49:09.626Z,22976.00
2018-09-22T08:50:09.720Z,22848.00
2018-09-22T08:51:09.747Z,22176.00
2018-09-22T08:52:09.737Z,23776.00
2018-09-22T08:53:09.774Z,23776.00
2018-09-22T08:54:09.811Z,24544.00
2018-09-22T08:55:09.848Z,24064.00
2018-09-22T08:56:09.885Z,22048.00
2018-09-22T08:57:09.921Z,20224.00
2018-09-22T08:58:09.964Z,18720.00
2018-09-22T08:59:09.996Z,20320.00
2018-09-22T09:00:10.034Z,23776.00
2018-09-22T09:01:10.070Z,24448.00
2018-09-22T09:02:10.109Z,23104.00
2018-09-22T09:03:10.146Z,22784.00
2018-09-22T09:04:10.183Z,24064.00
2018-09-22T09:05:10.347Z,27680.00
2018-09-22T09:06:10.258Z,28640.00
2018-09-22T09:07:10.295Z,29632.00
2018-09-22T09:08:10.333Z,30144.00
2018-09-22T09:09:10.375Z,31008.00
2018-09-22T09:10:10.415Z,29984.00
2018-09-22T09:11:10.447Z,31008.00
2018-09-22T09:12:10.484Z,28288.00
2018-09-22T09:13:10.530Z,27360.00
2018-09-22T09:14:10.620Z,25184.00
2018-09-22T09:15:10.601Z,24960.00
2018-09-22T09:16:10.637Z,26496.00
2018-09-22T09:17:10.702Z,25472.00
2018-09-22T09:18:10.713Z,28224.00
2018-09-22T09:19:10.772Z,28480.00
2018-09-22T09:20:10.791Z,27392.00
2018-09-22T09:21:10.828Z,24576.00
2018-09-22T09:22:10.867Z,25088.00
2018-09-22T09:23:10.906Z,23584.00
2018-09-22T09:24:10.945Z,22432.00
2018-09-22T09:25:10.983Z,21984.00
2018-09-22T09:26:11.021Z,20704.00
2018-09-22T09:27:11.060Z,21248.00
2018-09-22T09:28:11.098Z,21184.00
2018-09-22T09:29:11.136Z,20576.00
2018-09-22T09:30:11.175Z,18912.00
2018-09-22T09:31:11.214Z,19104.00
2018-09-22T09:32:11.252Z,19936.00
2018-09-22T09:33:11.292Z,20992.00
2018-09-22T09:34:11.329Z,24608.00
2018-09-22T09:35:11.369Z,28832.00
2018-09-22T09:36:11.407Z,36448.00
2018-09-22T09:37:11.443Z,42368.00
2018-09-22T09:38:11.483Z,47840.00
2018-09-22T09:39:11.522Z,44896.00
2018-09-22T09:40:11.561Z,30048.00
2018-09-22T09:41:11.602Z,42272.00
2018-09-22T09:42:11.637Z,39328.00
2018-09-22T09:43:11.714Z,37824.00
2018-09-22T09:44:11.721Z,35296.00
2018-09-22T09:45:11.756Z,31136.00
2018-09-22T09:46:11.794Z,28288.00
2018-09-22T09:47:11.835Z,29440.00
2018-09-22T09:48:11.875Z,28256.00
2018-09-22T09:49:11.913Z,28832.00
2018-09-22T09:50:11.954Z,24576.00
2018-09-22T09:51:11.994Z,22688.00
2018-09-22T09:52:12.033Z,23424.00
2018-09-22T09:53:12.076Z,22560.00
2018-09-22T09:54:12.116Z,22432.00
2018-09-22T09:55:12.153Z,21984.00
2018-09-22T09:56:12.193Z,22784.00
2018-09-22T09:57:12.232Z,22240.00
2018-09-22T09:58:12.272Z,21792.00
2018-09-22T09:59:12.311Z,24352.00
2018-09-22T10:00:12.351Z,27936.00
2018-09-22T10:01:12.390Z,29280.00
2018-09-22T10:02:12.428Z,29056.00
2018-09-22T10:03:12.470Z,39040.00
2018-09-22T10:04:12.522Z,54432.00
2018-09-22T10:05:12.547Z,57728.00
2018-09-22T10:06:12.588Z,44096.00
2018-09-22T10:07:12.627Z,60064.00
2018-09-22T10:08:12.666Z,64448.00
2018-09-22T10:09:12.705Z,63168.00
2018-09-22T10:10:12.747Z,57632.00
2018-09-22T10:11:12.788Z,65632.00
2018-09-22T10:12:12.829Z,79264.00
2018-09-22T10:13:12.868Z,76512.00
2018-09-22T10:14:12.911Z,68768.00
2018-09-22T10:15:12.952Z,52224.00
2018-09-22T10:16:12.993Z,61856.00
2018-09-22T10:17:13.036Z,81376.00
2018-09-22T10:18:13.079Z,98560.00
2018-09-22T10:19:13.121Z,96416.00
2018-09-22T10:20:13.245Z,88032.00
2018-09-22T10:21:13.210Z,70496.00
2018-09-22T10:22:13.249Z,60160.00
2018-09-22T10:23:13.293Z,59904.00
2018-09-22T10:24:13.336Z,88832.00
2018-09-22T10:25:13.380Z,70432.00
2018-09-22T10:26:13.437Z,98720.00
2018-09-22T10:27:13.469Z,90656.00
2018-09-22T10:28:13.516Z,82272.00
2018-09-22T10:29:13.561Z,79584.00
2018-09-22T10:30:13.604Z,107296.00
2018-09-22T10:31:13.649Z,99104.00
2018-09-22T10:32:13.696Z,96576.00
2018-09-22T10:33:13.966Z,104704.00
2018-09-22T10:34:14.116Z,70080.00
2018-09-22T10:35:13.833Z,81504.00
2018-09-22T10:36:13.901Z,56224.00
2018-09-22T10:37:13.928Z,93312.00
2018-09-22T10:38:13.975Z,102944.00
2018-09-22T10:39:14.021Z,110464.00
2018-09-22T10:40:16.697Z,87360.00
2018-09-22T10:41:14.116Z,77344.00
2018-09-22T10:42:14.169Z,50176.00
2018-09-22T10:43:14.209Z,61024.00
2018-09-22T10:44:14.258Z,68128.00
2018-09-22T10:45:14.303Z,54592.00
2018-09-22T10:46:14.351Z,68480.00
2018-09-22T10:47:14.398Z,96896.00
2018-09-22T10:48:14.670Z,104224.00
2018-09-22T10:50:14.541Z,119072.00
2018-09-22T10:51:14.588Z,118336.00
2018-09-22T10:52:14.635Z,102080.00
2018-09-22T10:53:14.683Z,112288.00
2018-09-22T10:54:14.731Z,109920.00
2018-09-22T10:55:14.802Z,86208.00
2018-09-22T10:56:14.828Z,98560.00
2018-09-22T10:57:14.900Z,96096.00
2018-09-22T10:58:14.924Z,99744.00
2018-09-22T10:59:14.975Z,111104.00
2018-09-22T11:00:15.024Z,97408.00
2018-09-22T11:01:15.910Z,92544.00
2018-09-22T11:02:15.122Z,108160.00
2018-09-22T11:03:15.175Z,82912.00
2018-09-22T11:04:15.221Z,35392.00
2018-09-22T11:05:15.496Z,74464.00
2018-09-22T11:06:15.320Z,60192.00
2018-09-22T11:07:15.395Z,113472.00
2018-09-22T11:08:15.444Z,118848.00
2018-09-22T11:09:15.493Z,120544.00
2018-09-22T11:10:18.950Z,119648.00
2018-09-22T11:11:15.568Z,110464.00
2018-09-22T11:12:16.428Z,115616.00
2018-09-22T11:14:15.719Z,117184.00
2018-09-22T11:15:15.769Z,118336.00
2018-09-22T11:16:15.821Z,109600.00
2018-09-22T11:17:15.868Z,104896.00
2018-09-22T11:18:15.918Z,108672.00
2018-09-22T11:19:15.973Z,108064.00
2018-09-22T11:20:16.045Z,118464.00
2018-09-22T11:21:16.071Z,115904.00
2018-09-22T11:22:16.122Z,104864.00
2018-09-22T11:23:16.173Z,105472.00
2018-09-22T11:24:16.223Z,107456.00
2018-09-22T11:25:16.273Z,113728.00
2018-09-22T11:26:16.323Z,80192.00
2018-09-22T11:27:16.375Z,113248.00
2018-09-22T11:28:16.424Z,115200.00
2018-09-22T11:29:16.479Z,115456.00
2018-09-22T11:30:16.524Z,110688.00
2018-09-22T11:31:16.575Z,116224.00
2018-09-22T11:32:16.625Z,115744.00
2018-09-22T11:33:16.673Z,113536.00
2018-09-22T11:34:16.723Z,115936.00
2018-09-22T11:35:16.774Z,114496.00
2018-09-22T11:36:16.824Z,116736.00
2018-09-22T11:37:16.874Z,116352.00
2018-09-22T11:38:16.970Z,113248.00
2018-09-22T11:39:16.975Z,119552.00
2018-09-22T11:40:17.031Z,117856.00
2018-09-22T11:41:17.079Z,106784.00
2018-09-22T11:42:17.351Z,104320.00
2018-09-22T11:43:17.178Z,106432.00
2018-09-22T11:44:17.229Z,104640.00
2018-09-22T11:45:17.279Z,121056.00
2018-09-22T11:46:17.360Z,128864.00
2018-09-22T11:47:17.381Z,130784.00
2018-09-22T11:48:17.432Z,128800.00
2018-09-22T11:49:17.482Z,127360.00
2018-09-22T11:50:17.534Z,129536.00
2018-09-22T11:51:17.584Z,118976.00
2018-09-22T11:52:17.636Z,121248.00
2018-09-22T11:53:17.685Z,116576.00
2018-09-22T11:54:17.740Z,114400.00
2018-09-22T11:55:17.791Z,116544.00
2018-09-22T11:56:17.841Z,109344.00
2018-09-22T11:57:17.890Z,123232.00
2018-09-22T11:58:17.942Z,123008.00
2018-09-22T11:59:17.993Z,118272.00
2018-09-22T12:00:18.043Z,104832.00
2018-09-22T12:01:18.095Z,120736.00
2018-09-22T12:02:18.146Z,113952.00
2018-09-22T12:03:18.197Z,101088.00
2018-09-22T12:04:18.248Z,68800.00
2018-09-22T12:05:18.300Z,42592.00
2018-09-22T12:06:18.399Z,45344.00
2018-09-22T12:07:18.402Z,50816.00
2018-09-22T12:08:18.453Z,54272.00
2018-09-22T12:09:18.504Z,70176.00
2018-09-22T12:10:18.553Z,60992.00
2018-09-22T12:11:18.604Z,107552.00
2018-09-22T12:12:18.654Z,117216.00
2018-09-22T12:13:18.703Z,113696.00
2018-09-22T12:14:18.753Z,109504.00
2018-09-22T12:15:18.803Z,102496.00
2018-09-22T12:16:18.854Z,96416.00
2018-09-22T12:17:18.903Z,94784.00
2018-09-22T12:18:18.960Z,83808.00
2018-09-22T12:19:19.004Z,89536.00
2018-09-22T12:20:19.054Z,68800.00
2018-09-22T12:21:19.116Z,100064.00
2018-09-22T12:22:19.154Z,100960.00
2018-09-22T12:23:19.207Z,90048.00
2018-09-22T12:24:19.256Z,82944.00
2018-09-22T12:25:19.306Z,87968.00
2018-09-22T12:26:19.356Z,85056.00